sensor_id;sensor_type;location;lat;lon;timestamp;pressure;altitude;pressure_sealevel;temperature;humidity
65151;BME280;51918;51.856;0.150;2023-04-26T00:04:06;101082.47;;;5.59;60.20
65151;BME280;51918;51.856;0.150;2023-04-26T00:09:07;101083.88;;;5.64;60.81
65151;BME280;51918;51.856;0.150;2023-04-26T00:14:09;101077.72;;;5.66;61.06
65151;BME280;51918;51.856;0.150;2023-04-26T00:19:10;101071.44;;;5.59;61.29
65151;BME280;51918;51.856;0.150;2023-04-26T00:24:10;101069.22;;;5.54;61.27
65151;BME280;51918;51.856;0.150;2023-04-26T00:29:12;101059.47;;;5.48;61.66
65151;BME280;51918;51.856;0.150;2023-04-26T00:34:13;101052.53;;;5.39;61.97
65151;BME280;51918;51.856;0.150;2023-04-26T00:39:14;101050.56;;;5.31;62.19
65151;BME280;51918;51.856;0.150;2023-04-26T00:44:16;101046.03;;;5.24;62.44
65151;BME280;51918;51.856;0.150;2023-04-26T00:49:18;101031.28;;;5.16;62.67
65151;BME280;51918;51.856;0.150;2023-04-26T00:54:20;101041.00;;;5.11;63.45
65151;BME280;51918;51.856;0.150;2023-04-26T00:59:22;101040.41;;;5.07;63.40
65151;BME280;51918;51.856;0.150;2023-04-26T01:04:23;101028.94;;;5.02;64.04
65151;BME280;51918;51.856;0.150;2023-04-26T01:09:23;101028.69;;;4.93;64.01
65151;BME280;51918;51.856;0.150;2023-04-26T01:14:26;101017.31;;;4.86;64.57
65151;BME280;51918;51.856;0.150;2023-04-26T01:19:27;101016.94;;;4.80;64.94
65151;BME280;51918;51.856;0.150;2023-04-26T01:24:30;101020.97;;;4.71;64.91
65151;BME280;51918;51.856;0.150;2023-04-26T01:29:32;101011.34;;;4.63;65.68
65151;BME280;51918;51.856;0.150;2023-04-26T01:34:32;101006.59;;;4.59;66.18
65151;BME280;51918;51.856;0.150;2023-04-26T01:39:35;101010.16;;;4.56;66.22
65151;BME280;51918;51.856;0.150;2023-04-26T01:44:35;100999.38;;;4.52;66.43
65151;BME280;51918;51.856;0.150;2023-04-26T01:49:36;100995.41;;;4.48;66.82
65151;BME280;51918;51.856;0.150;2023-04-26T01:54:38;100992.59;;;4.40;66.81
65151;BME280;51918;51.856;0.150;2023-04-26T01:59:39;100981.81;;;4.36;67.37
65151;BME280;51918;51.856;0.150;2023-04-26T02:04:39;100982.38;;;4.29;67.97
65151;BME280;51918;51.856;0.150;2023-04-26T02:09:41;100977.38;;;4.27;68.18
65151;BME280;51918;51.856;0.150;2023-04-26T02:14:42;100976.25;;;4.31;68.17
65151;BME280;51918;51.856;0.150;2023-04-26T02:19:42;100981.09;;;4.34;67.60
65151;BME280;51918;51.856;0.150;2023-04-26T02:24:44;100979.88;;;4.40;67.94
65151;BME280;51918;51.856;0.150;2023-04-26T02:29:45;100994.94;;;4.43;67.97
65151;BME280;51918;51.856;0.150;2023-04-26T02:34:45;100987.78;;;4.48;68.13
65151;BME280;51918;51.856;0.150;2023-04-26T02:39:50;100973.19;;;4.50;68.59
65151;BME280;51918;51.856;0.150;2023-04-26T02:44:50;100978.06;;;4.53;68.18
65151;BME280;51918;51.856;0.150;2023-04-26T02:49:51;100975.41;;;4.55;68.21
65151;BME280;51918;51.856;0.150;2023-04-26T02:54:53;100970.41;;;4.53;68.16
65151;BME280;51918;51.856;0.150;2023-04-26T02:59:54;100978.28;;;4.50;67.81
65151;BME280;51918;51.856;0.150;2023-04-26T03:04:54;100959.75;;;4.48;68.30
65151;BME280;51918;51.856;0.150;2023-04-26T03:09:56;100971.00;;;4.46;68.31
65151;BME280;51918;51.856;0.150;2023-04-26T03:14:57;100970.84;;;4.47;68.01
65151;BME280;51918;51.856;0.150;2023-04-26T03:19:58;100960.47;;;4.50;68.23
65151;BME280;51918;51.856;0.150;2023-04-26T03:25:00;100961.75;;;4.56;68.78
65151;BME280;51918;51.856;0.150;2023-04-26T03:30:00;100975.31;;;4.56;68.08
65151;BME280;51918;51.856;0.150;2023-04-26T03:35:01;100979.00;;;4.52;68.15
65151;BME280;51918;51.856;0.150;2023-04-26T03:40:04;100976.97;;;4.45;68.24
65151;BME280;51918;51.856;0.150;2023-04-26T03:45:06;100968.88;;;4.40;68.37
65151;BME280;51918;51.856;0.150;2023-04-26T03:50:08;100958.19;;;4.34;68.57
65151;BME280;51918;51.856;0.150;2023-04-26T03:55:10;100952.63;;;4.29;68.72
65151;BME280;51918;51.856;0.150;2023-04-26T04:00:12;100942.78;;;4.25;68.83
65151;BME280;51918;51.856;0.150;2023-04-26T04:05:12;100950.50;;;4.23;69.28
65151;BME280;51918;51.856;0.150;2023-04-26T04:10:14;100942.06;;;4.23;69.49
65151;BME280;51918;51.856;0.150;2023-04-26T04:15:15;100947.06;;;4.24;69.52
65151;BME280;51918;51.856;0.150;2023-04-26T04:20:16;100946.13;;;4.25;69.16
65151;BME280;51918;51.856;0.150;2023-04-26T04:25:18;100948.56;;;4.27;69.35
65151;BME280;51918;51.856;0.150;2023-04-26T04:30:19;100941.41;;;4.32;69.76
65151;BME280;51918;51.856;0.150;2023-04-26T04:35:20;100949.53;;;4.37;69.70
65151;BME280;51918;51.856;0.150;2023-04-26T04:40:23;100942.47;;;4.41;69.83
65151;BME280;51918;51.856;0.150;2023-04-26T04:45:24;100952.31;;;4.45;69.87
65151;BME280;51918;51.856;0.150;2023-04-26T04:50:24;100961.38;;;4.49;69.72
65151;BME280;51918;51.856;0.150;2023-04-26T04:55:26;100956.06;;;4.52;69.61
65151;BME280;51918;51.856;0.150;2023-04-26T05:00:27;100955.03;;;4.55;69.95
65151;BME280;51918;51.856;0.150;2023-04-26T05:05:28;100956.31;;;4.61;69.93
65151;BME280;51918;51.856;0.150;2023-04-26T05:10:30;100954.00;;;4.69;70.61
65151;BME280;51918;51.856;0.150;2023-04-26T05:15:31;100966.44;;;4.73;70.03
65151;BME280;51918;51.856;0.150;2023-04-26T05:20:31;100958.31;;;4.80;70.61
65151;BME280;51918;51.856;0.150;2023-04-26T05:25:37;100945.97;;;4.86;70.50
65151;BME280;51918;51.856;0.150;2023-04-26T05:30:37;100945.63;;;4.91;70.36
65151;BME280;51918;51.856;0.150;2023-04-26T05:35:38;100953.72;;;4.96;71.39
65151;BME280;51918;51.856;0.150;2023-04-26T05:40:40;100950.38;;;5.07;71.46
65151;BME280;51918;51.856;0.150;2023-04-26T05:45:49;100958.84;;;5.18;71.18
65151;BME280;51918;51.856;0.150;2023-04-26T05:50:50;100953.75;;;5.30;70.61
65151;BME280;51918;51.856;0.150;2023-04-26T05:55:52;100955.84;;;5.36;70.58
65151;BME280;51918;51.856;0.150;2023-04-26T06:00:53;100964.16;;;5.49;70.46
65151;BME280;51918;51.856;0.150;2023-04-26T06:05:53;100957.88;;;5.65;70.35
65151;BME280;51918;51.856;0.150;2023-04-26T06:10:55;100967.38;;;5.85;70.96
65151;BME280;51918;51.856;0.150;2023-04-26T06:15:58;100967.28;;;6.08;70.45
65151;BME280;51918;51.856;0.150;2023-04-26T06:20:58;100977.06;;;6.35;70.09
65151;BME280;51918;51.856;0.150;2023-04-26T06:26:00;100974.63;;;6.66;70.12
65151;BME280;51918;51.856;0.150;2023-04-26T06:31:01;100980.06;;;6.93;69.21
65151;BME280;51918;51.856;0.150;2023-04-26T06:36:02;100979.53;;;6.99;67.72
65151;BME280;51918;51.856;0.150;2023-04-26T06:41:04;100973.78;;;7.07;67.17
65151;BME280;51918;51.856;0.150;2023-04-26T06:46:04;100972.72;;;7.10;66.95
65151;BME280;51918;51.856;0.150;2023-04-26T06:51:05;100974.91;;;7.14;66.74
65151;BME280;51918;51.856;0.150;2023-04-26T06:56:07;100972.72;;;7.10;66.60
65151;BME280;51918;51.856;0.150;2023-04-26T07:01:07;100966.03;;;7.18;67.06
65151;BME280;51918;51.856;0.150;2023-04-26T07:06:08;100967.25;;;7.24;66.84
65151;BME280;51918;51.856;0.150;2023-04-26T07:11:11;100964.38;;;7.38;66.25
65151;BME280;51918;51.856;0.150;2023-04-26T07:16:12;100959.03;;;7.61;66.31
65151;BME280;51918;51.856;0.150;2023-04-26T07:21:13;100968.69;;;7.48;67.03
65151;BME280;51918;51.856;0.150;2023-04-26T07:26:15;100969.03;;;7.64;67.17
65151;BME280;51918;51.856;0.150;2023-04-26T07:31:16;100966.63;;;7.72;67.09
65151;BME280;51918;51.856;0.150;2023-04-26T07:36:16;100960.41;;;7.75;67.16
65151;BME280;51918;51.856;0.150;2023-04-26T07:41:18;100963.53;;;7.98;66.56
65151;BME280;51918;51.856;0.150;2023-04-26T07:46:19;100966.25;;;8.25;65.86
65151;BME280;51918;51.856;0.150;2023-04-26T07:51:19;100958.81;;;8.52;65.26
65151;BME280;51918;51.856;0.150;2023-04-26T07:56:22;100972.56;;;8.70;63.70
65151;BME280;51918;51.856;0.150;2023-04-26T08:01:23;100982.66;;;8.91;62.60
65151;BME280;51918;51.856;0.150;2023-04-26T08:06:24;100982.47;;;9.12;62.14
65151;BME280;51918;51.856;0.150;2023-04-26T08:11:26;100974.41;;;9.35;61.15
65151;BME280;51918;51.856;0.150;2023-04-26T08:16:26;100972.84;;;9.69;58.53
65151;BME280;51918;51.856;0.150;2023-04-26T08:21:27;100984.25;;;9.85;58.85
65151;BME280;51918;51.856;0.150;2023-04-26T08:26:29;100977.47;;;9.94;57.24
65151;BME280;51918;51.856;0.150;2023-04-26T08:31:30;100962.78;;;10.04;56.39
65151;BME280;51918;51.856;0.150;2023-04-26T08:36:33;100967.34;;;10.10;54.82
65151;BME280;51918;51.856;0.150;2023-04-26T08:41:40;100964.34;;;9.87;54.72
65151;BME280;51918;51.856;0.150;2023-04-26T08:46:47;100964.34;;;9.97;55.86
65151;BME280;51918;51.856;0.150;2023-04-26T08:51:52;100962.88;;;9.94;55.20
65151;BME280;51918;51.856;0.150;2023-04-26T08:56:57;100956.34;;;10.18;55.27
65151;BME280;51918;51.856;0.150;2023-04-26T09:01:59;100951.84;;;10.20;52.68
65151;BME280;51918;51.856;0.150;2023-04-26T09:07:01;100958.03;;;10.09;51.76
65151;BME280;51918;51.856;0.150;2023-04-26T09:12:03;100958.94;;;10.26;50.29
65151;BME280;51918;51.856;0.150;2023-04-26T09:17:04;100967.22;;;10.56;49.46
65151;BME280;51918;51.856;0.150;2023-04-26T09:22:05;100966.13;;;10.84;49.69
65151;BME280;51918;51.856;0.150;2023-04-26T09:27:07;100961.56;;;11.04;47.69
65151;BME280;51918;51.856;0.150;2023-04-26T09:32:08;100971.00;;;10.96;46.34
65151;BME280;51918;51.856;0.150;2023-04-26T09:37:10;100966.72;;;11.39;46.21
65151;BME280;51918;51.856;0.150;2023-04-26T09:42:15;100961.72;;;11.37;46.46
65151;BME280;51918;51.856;0.150;2023-04-26T09:47:16;100979.97;;;11.52;45.64
65151;BME280;51918;51.856;0.150;2023-04-26T09:52:18;100975.50;;;11.62;44.92
65151;BME280;51918;51.856;0.150;2023-04-26T09:57:20;100976.44;;;11.27;44.18
65151;BME280;51918;51.856;0.150;2023-04-26T10:02:22;100986.56;;;11.12;43.86
65151;BME280;51918;51.856;0.150;2023-04-26T10:07:24;100977.03;;;10.78;42.79
65151;BME280;51918;51.856;0.150;2023-04-26T10:12:26;100963.38;;;10.86;43.85
65151;BME280;51918;51.856;0.150;2023-04-26T10:17:28;100965.63;;;10.81;44.70
65151;BME280;51918;51.856;0.150;2023-04-26T10:22:33;100953.28;;;10.66;43.35
65151;BME280;51918;51.856;0.150;2023-04-26T10:27:50;100951.28;;;10.78;42.71
65151;BME280;51918;51.856;0.150;2023-04-26T10:33:17;100948.31;;;10.91;42.27
65151;BME280;51918;51.856;0.150;2023-04-26T10:38:18;100950.19;;;10.81;40.59
65151;BME280;51918;51.856;0.150;2023-04-26T10:43:29;100948.16;;;10.66;40.36
65151;BME280;51918;51.856;0.150;2023-04-26T10:48:30;100941.41;;;10.65;41.31
65151;BME280;51918;51.856;0.150;2023-04-26T10:53:32;100946.38;;;10.93;40.87
65151;BME280;51918;51.856;0.150;2023-04-26T10:59:09;100953.84;;;11.04;39.71
65151;BME280;51918;51.856;0.150;2023-04-26T11:04:11;100941.91;;;10.95;39.55
65151;BME280;51918;51.856;0.150;2023-04-26T11:09:32;100922.28;;;11.02;41.08
65151;BME280;51918;51.856;0.150;2023-04-26T11:14:35;100932.22;;;10.89;39.75
65151;BME280;51918;51.856;0.150;2023-04-26T11:19:35;100925.66;;;11.03;39.67
65151;BME280;51918;51.856;0.150;2023-04-26T11:24:36;100915.13;;;11.22;40.15
65151;BME280;51918;51.856;0.150;2023-04-26T11:29:38;100900.50;;;11.23;39.76
65151;BME280;51918;51.856;0.150;2023-04-26T11:34:39;100902.34;;;11.47;39.56
65151;BME280;51918;51.856;0.150;2023-04-26T11:39:40;100899.00;;;11.63;39.99
65151;BME280;51918;51.856;0.150;2023-04-26T11:44:42;100906.25;;;11.67;39.89
65151;BME280;51918;51.856;0.150;2023-04-26T11:49:42;100906.28;;;11.84;39.68
65151;BME280;51918;51.856;0.150;2023-04-26T11:54:43;100908.03;;;11.83;39.81
65151;BME280;51918;51.856;0.150;2023-04-26T11:59:48;100909.59;;;11.43;38.16
65151;BME280;51918;51.856;0.150;2023-04-26T12:04:57;100915.44;;;11.62;38.67
65151;BME280;51918;51.856;0.150;2023-04-26T12:10:12;100906.56;;;11.81;40.19
65151;BME280;51918;51.856;0.150;2023-04-26T12:15:15;100904.16;;;11.71;40.65
65151;BME280;51918;51.856;0.150;2023-04-26T12:20:16;100905.56;;;11.49;40.33
65151;BME280;51918;51.856;0.150;2023-04-26T12:25:19;100900.94;;;11.77;40.44
65151;BME280;51918;51.856;0.150;2023-04-26T12:30:22;100900.31;;;11.75;40.16
65151;BME280;51918;51.856;0.150;2023-04-26T12:35:23;100905.63;;;12.06;40.15
65151;BME280;51918;51.856;0.150;2023-04-26T12:40:24;100905.75;;;12.46;39.51
65151;BME280;51918;51.856;0.150;2023-04-26T12:45:26;100902.84;;;12.41;39.50
65151;BME280;51918;51.856;0.150;2023-04-26T12:50:27;100902.53;;;12.27;39.24
65151;BME280;51918;51.856;0.150;2023-04-26T12:55:27;100900.13;;;12.34;38.45
65151;BME280;51918;51.856;0.150;2023-04-26T13:00:29;100898.22;;;12.03;38.40
65151;BME280;51918;51.856;0.150;2023-04-26T13:05:30;100910.78;;;12.06;39.43
65151;BME280;51918;51.856;0.150;2023-04-26T13:10:31;100916.22;;;12.36;40.03
65151;BME280;51918;51.856;0.150;2023-04-26T13:15:33;100916.53;;;12.49;38.11
65151;BME280;51918;51.856;0.150;2023-04-26T13:20:33;100916.88;;;12.30;38.81
65151;BME280;51918;51.856;0.150;2023-04-26T13:25:34;100912.84;;;12.36;38.73
65151;BME280;51918;51.856;0.150;2023-04-26T13:30:36;100911.56;;;12.23;37.84
65151;BME280;51918;51.856;0.150;2023-04-26T13:35:36;100904.91;;;12.45;38.54
65151;BME280;51918;51.856;0.150;2023-04-26T13:40:40;100909.94;;;12.63;38.43
65151;BME280;51918;51.856;0.150;2023-04-26T13:45:42;100915.00;;;12.88;38.27
65151;BME280;51918;51.856;0.150;2023-04-26T13:50:42;100913.44;;;12.79;37.40
65151;BME280;51918;51.856;0.150;2023-04-26T13:55:43;100907.03;;;12.42;37.96
65151;BME280;51918;51.856;0.150;2023-04-26T14:00:45;100904.63;;;12.40;38.19
65151;BME280;51918;51.856;0.150;2023-04-26T14:05:46;100906.72;;;12.45;38.17
65151;BME280;51918;51.856;0.150;2023-04-26T14:10:46;100903.22;;;11.97;38.62
65151;BME280;51918;51.856;0.150;2023-04-26T14:15:49;100900.28;;;12.00;38.82
65151;BME280;51918;51.856;0.150;2023-04-26T14:20:49;100895.78;;;12.10;38.26
65151;BME280;51918;51.856;0.150;2023-04-26T14:25:50;100912.56;;;12.06;38.68
65151;BME280;51918;51.856;0.150;2023-04-26T14:30:53;100898.03;;;12.13;38.54
65151;BME280;51918;51.856;0.150;2023-04-26T14:35:56;100890.00;;;12.16;39.15
65151;BME280;51918;51.856;0.150;2023-04-26T14:40:57;100892.22;;;12.27;39.25
65151;BME280;51918;51.856;0.150;2023-04-26T14:45:59;100895.44;;;12.46;38.77
65151;BME280;51918;51.856;0.150;2023-04-26T14:50:59;100899.81;;;12.37;38.15
65151;BME280;51918;51.856;0.150;2023-04-26T14:56:00;100895.94;;;12.25;38.81
65151;BME280;51918;51.856;0.150;2023-04-26T15:01:03;100891.91;;;12.06;39.28
65151;BME280;51918;51.856;0.150;2023-04-26T15:06:03;100887.41;;;12.00;39.44
65151;BME280;51918;51.856;0.150;2023-04-26T15:11:04;100889.84;;;12.01;39.81
65151;BME280;51918;51.856;0.150;2023-04-26T15:16:07;100885.16;;;11.88;39.79
65151;BME280;51918;51.856;0.150;2023-04-26T15:21:07;100881.00;;;11.87;40.62
65151;BME280;51918;51.856;0.150;2023-04-26T15:26:08;100880.47;;;11.76;40.02
65151;BME280;51918;51.856;0.150;2023-04-26T15:31:10;100879.03;;;11.65;40.80
65151;BME280;51918;51.856;0.150;2023-04-26T15:36:11;100869.91;;;11.20;41.23
65151;BME280;51918;51.856;0.150;2023-04-26T15:41:11;100874.53;;;11.08;41.79
65151;BME280;51918;51.856;0.150;2023-04-26T15:46:13;100881.09;;;11.02;42.05
65151;BME280;51918;51.856;0.150;2023-04-26T15:51:14;100889.66;;;11.11;42.33
65151;BME280;51918;51.856;0.150;2023-04-26T15:56:15;100891.75;;;11.16;42.37
65151;BME280;51918;51.856;0.150;2023-04-26T16:01:17;100892.19;;;11.03;42.25
65151;BME280;51918;51.856;0.150;2023-04-26T16:06:18;100893.97;;;11.02;42.75
65151;BME280;51918;51.856;0.150;2023-04-26T16:11:19;100886.41;;;11.01;42.45
65151;BME280;51918;51.856;0.150;2023-04-26T16:16:21;100891.72;;;10.99;42.34
65151;BME280;51918;51.856;0.150;2023-04-26T16:21:21;100888.13;;;10.92;42.52
65151;BME280;51918;51.856;0.150;2023-04-26T16:26:22;100891.72;;;10.99;42.70
65151;BME280;51918;51.856;0.150;2023-04-26T16:31:24;100901.22;;;11.07;42.18
65151;BME280;51918;51.856;0.150;2023-04-26T16:36:25;100899.69;;;10.88;42.63
65151;BME280;51918;51.856;0.150;2023-04-26T16:41:26;100900.25;;;11.00;42.34
65151;BME280;51918;51.856;0.150;2023-04-26T16:46:28;100897.66;;;11.00;42.50
65151;BME280;51918;51.856;0.150;2023-04-26T16:51:28;100900.72;;;11.03;42.48
65151;BME280;51918;51.856;0.150;2023-04-26T16:56:29;100902.97;;;10.98;42.18
65151;BME280;51918;51.856;0.150;2023-04-26T17:01:31;100907.78;;;11.01;42.34
65151;BME280;51918;51.856;0.150;2023-04-26T17:06:32;100914.47;;;10.86;42.38
65151;BME280;51918;51.856;0.150;2023-04-26T17:11:33;100912.19;;;10.75;42.86
65151;BME280;51918;51.856;0.150;2023-04-26T17:16:35;100912.19;;;10.75;42.83
65151;BME280;51918;51.856;0.150;2023-04-26T17:21:36;100915.03;;;10.63;43.02
65151;BME280;51918;51.856;0.150;2023-04-26T17:26:36;100912.72;;;10.52;43.14
65151;BME280;51918;51.856;0.150;2023-04-26T17:31:38;100920.31;;;10.36;43.26
65151;BME280;51918;51.856;0.150;2023-04-26T17:36:39;100917.66;;;10.27;43.35
65151;BME280;51918;51.856;0.150;2023-04-26T17:41:39;100915.81;;;10.38;43.89
65151;BME280;51918;51.856;0.150;2023-04-26T17:46:42;100921.38;;;10.51;43.75
65151;BME280;51918;51.856;0.150;2023-04-26T17:51:42;100919.16;;;10.56;43.51
65151;BME280;51918;51.856;0.150;2023-04-26T17:56:43;100921.47;;;10.41;43.97
65151;BME280;51918;51.856;0.150;2023-04-26T18:01:45;100921.22;;;10.26;44.40
65151;BME280;51918;51.856;0.150;2023-04-26T18:06:46;100919.59;;;10.25;44.21
65151;BME280;51918;51.856;0.150;2023-04-26T18:11:47;100914.91;;;10.21;44.55
65151;BME280;51918;51.856;0.150;2023-04-26T18:16:49;100921.22;;;10.08;45.04
65151;BME280;51918;51.856;0.150;2023-04-26T18:21:49;100913.16;;;10.03;45.22
65151;BME280;51918;51.856;0.150;2023-04-26T18:26:50;100901.84;;;9.96;45.56
65151;BME280;51918;51.856;0.150;2023-04-26T18:31:52;100913.53;;;9.91;45.67
65151;BME280;51918;51.856;0.150;2023-04-26T18:36:53;100914.06;;;9.84;45.76
65151;BME280;51918;51.856;0.150;2023-04-26T18:41:54;100920.97;;;9.66;45.85
65151;BME280;51918;51.856;0.150;2023-04-26T18:46:56;100927.13;;;9.55;46.04
65151;BME280;51918;51.856;0.150;2023-04-26T18:51:56;100926.97;;;9.57;46.33
65151;BME280;51918;51.856;0.150;2023-04-26T18:56:57;100925.72;;;9.43;46.30
65151;BME280;51918;51.856;0.150;2023-04-26T19:01:59;100919.69;;;9.34;46.61
65151;BME280;51918;51.856;0.150;2023-04-26T19:07:00;100916.00;;;9.09;47.34
65151;BME280;51918;51.856;0.150;2023-04-26T19:12:00;100906.06;;;8.96;48.54
65151;BME280;51918;51.856;0.150;2023-04-26T19:17:02;100910.84;;;9.19;47.61
65151;BME280;51918;51.856;0.150;2023-04-26T19:22:03;100898.56;;;8.85;48.55
65151;BME280;51918;51.856;0.150;2023-04-26T19:27:04;100897.41;;;8.70;49.58
65151;BME280;51918;51.856;0.150;2023-04-26T19:32:06;100914.09;;;8.83;49.51
65151;BME280;51918;51.856;0.150;2023-04-26T19:37:09;100922.69;;;8.92;48.85
65151;BME280;51918;51.856;0.150;2023-04-26T19:42:10;100931.63;;;8.88;49.19
65151;BME280;51918;51.856;0.150;2023-04-26T19:47:12;100933.50;;;8.86;49.53
65151;BME280;51918;51.856;0.150;2023-04-26T19:52:12;100939.47;;;8.77;49.94
65151;BME280;51918;51.856;0.150;2023-04-26T19:57:13;100938.00;;;8.74;49.73
65151;BME280;51918;51.856;0.150;2023-04-26T20:02:15;100954.31;;;8.83;50.02
65151;BME280;51918;51.856;0.150;2023-04-26T20:07:15;100945.47;;;8.68;50.42
65151;BME280;51918;51.856;0.150;2023-04-26T20:12:16;100953.16;;;8.68;50.39
65151;BME280;51918;51.856;0.150;2023-04-26T20:17:18;100946.81;;;8.72;50.69
65151;BME280;51918;51.856;0.150;2023-04-26T20:22:18;100952.84;;;8.80;50.73
65151;BME280;51918;51.856;0.150;2023-04-26T20:27:18;100956.09;;;8.82;50.69
65151;BME280;51918;51.856;0.150;2023-04-26T20:32:20;100963.25;;;8.79;51.08
65151;BME280;51918;51.856;0.150;2023-04-26T20:37:21;100966.47;;;8.81;51.05
65151;BME280;51918;51.856;0.150;2023-04-26T20:42:22;100972.81;;;8.77;51.48
65151;BME280;51918;51.856;0.150;2023-04-26T20:47:24;100967.28;;;8.81;51.09
65151;BME280;51918;51.856;0.150;2023-04-26T20:52:25;100974.41;;;8.97;51.19
65151;BME280;51918;51.856;0.150;2023-04-26T20:57:25;100973.06;;;8.93;51.31
65151;BME280;51918;51.856;0.150;2023-04-26T21:02:27;100982.63;;;9.01;51.48
65151;BME280;51918;51.856;0.150;2023-04-26T21:07:28;100988.59;;;9.01;51.93
65151;BME280;51918;51.856;0.150;2023-04-26T21:12:28;100983.59;;;9.00;51.82
65151;BME280;51918;51.856;0.150;2023-04-26T21:17:30;100972.66;;;8.98;51.55
65151;BME280;51918;51.856;0.150;2023-04-26T21:22:31;100984.81;;;8.86;51.98
65151;BME280;51918;51.856;0.150;2023-04-26T21:27:31;100985.66;;;8.77;52.38
65151;BME280;51918;51.856;0.150;2023-04-26T21:32:34;100984.31;;;8.82;52.39
65151;BME280;51918;51.856;0.150;2023-04-26T21:37:35;100993.75;;;8.72;52.26
65151;BME280;51918;51.856;0.150;2023-04-26T21:42:36;100995.38;;;8.83;53.32
65151;BME280;51918;51.856;0.150;2023-04-26T21:47:38;100989.56;;;8.91;52.88
65151;BME280;51918;51.856;0.150;2023-04-26T21:52:38;101000.22;;;8.86;52.82
65151;BME280;51918;51.856;0.150;2023-04-26T21:57:39;101002.09;;;8.84;53.09
65151;BME280;51918;51.856;0.150;2023-04-26T22:02:41;100995.69;;;8.60;53.31
65151;BME280;51918;51.856;0.150;2023-04-26T22:07:42;100992.53;;;8.66;53.74
65151;BME280;51918;51.856;0.150;2023-04-26T22:12:42;100987.44;;;8.57;54.21
65151;BME280;51918;51.856;0.150;2023-04-26T22:17:44;100986.63;;;8.66;53.77
65151;BME280;51918;51.856;0.150;2023-04-26T22:22:45;100986.19;;;8.71;54.46
65151;BME280;51918;51.856;0.150;2023-04-26T22:27:46;100989.06;;;8.68;54.32
65151;BME280;51918;51.856;0.150;2023-04-26T22:32:48;100988.94;;;8.69;54.80
65151;BME280;51918;51.856;0.150;2023-04-26T22:37:49;100991.50;;;8.69;54.75
65151;BME280;51918;51.856;0.150;2023-04-26T22:42:50;100982.44;;;8.65;55.18
65151;BME280;51918;51.856;0.150;2023-04-26T22:47:52;100989.19;;;8.66;55.47
65151;BME280;51918;51.856;0.150;2023-04-26T22:52:53;100992.72;;;8.65;55.12
65151;BME280;51918;51.856;0.150;2023-04-26T22:57:53;100988.50;;;8.64;55.16
65151;BME280;51918;51.856;0.150;2023-04-26T23:02:55;100997.28;;;8.61;55.56
65151;BME280;51918;51.856;0.150;2023-04-26T23:07:55;101000.28;;;8.57;55.84
65151;BME280;51918;51.856;0.150;2023-04-26T23:12:56;101002.16;;;8.55;55.62
65151;BME280;51918;51.856;0.150;2023-04-26T23:17:58;100995.00;;;8.49;56.20
65151;BME280;51918;51.856;0.150;2023-04-26T23:22:58;101001.75;;;8.40;56.36
65151;BME280;51918;51.856;0.150;2023-04-26T23:27:59;100999.31;;;8.38;57.12
65151;BME280;51918;51.856;0.150;2023-04-26T23:33:01;101001.38;;;8.35;57.31
65151;BME280;51918;51.856;0.150;2023-04-26T23:38:01;100994.84;;;8.21;57.00
65151;BME280;51918;51.856;0.150;2023-04-26T23:43:02;100992.16;;;8.22;57.56
65151;BME280;51918;51.856;0.150;2023-04-26T23:48:04;100988.50;;;8.25;58.55
65151;BME280;51918;51.856;0.150;2023-04-26T23:53:05;100994.31;;;8.27;58.40
65151;BME280;51918;51.856;0.150;2023-04-26T23:58:06;100999.72;;;8.34;59.10
